Observations for Trim Market St
| Time | AQI | Temp °C | Hum % | Pres Pa | CO μg/m³ | H₂S μg/m³ | NO μg/m³ | NO₂ μg/m³ | O₃ μg/m³ | SO₂ μg/m³ | PM1 μg/m³ | PM2.5 μg/m³ | PM10 μg/m³ |
|---|---|---|---|---|---|---|---|---|---|---|---|---|---|
| Saturday 11 July 2026 | |||||||||||||
| 06:48 | 1 | 17.9 | 65 | 57,410 | 0.2 | 0 | 0 | 1.23 | 15.46 | 0 | 0 | 1.81 | 2.94 |
| 06:47 | 1 | 17.8 | 65 | 57,384 | 0.2 | 0 | 0 | 0.93 | 11.09 | 0 | 0.71 | 1.8 | 4.26 |
| 06:46 | 1 | 17.7 | 66 | 57,361 | 0.18 | 0 | 1.05 | 0.74 | 12.37 | 0 | 0.71 | 2.28 | 3.61 |
| 06:45 | 1 | 17.6 | 66 | 57,339 | 0.18 | 0 | 0 | 2.14 | 21.37 | 0 | 0.71 | 2.27 | 3.62 |
| 06:44 | 1 | 17.6 | 66 | 57,316 | 0.22 | 0 | 0 | 0 | 7.6 | 0 | 1.43 | 2.26 | 4.27 |
| 06:43 | 1 | 17.5 | 66 | 57,290 | 0.17 | 0 | 0.5 | 2.42 | 19.61 | 0 | 0 | 2.25 | 4.93 |
| 06:42 | 1 | 17.4 | 66 | 57,260 | 0.2 | 0 | 0 | 4.13 | 23.17 | 0 | 1.43 | 3.23 | 5.58 |
| 06:41 | 1 | 17.4 | 66 | 57,220 | 0.18 | 0 | 3.01 | 3.5 | 12.92 | 0 | 0 | 1.75 | 3 |
| 06:40 | 1 | 17.3 | 67 | 57,191 | 0.16 | 0 | 0.76 | 2.72 | 20.26 | 0 | 0.71 | 2.23 | 3.65 |
| 06:39 | 1 | 17.2 | 67 | 57,165 | 0.16 | 0 | 0 | 0 | 5.87 | 0 | 0.71 | 1.73 | 4.3 |
| 06:38 | 1 | 17.1 | 67 | 57,140 | 0.17 | 0 | 0 | 3.64 | 25.17 | 0 | 0 | 1.73 | 3.66 |
| 06:37 | 1 | 17.1 | 67 | 57,108 | 0.12 | 0 | 0 | 1.13 | 15.54 | 0 | 1.43 | 2.71 | 4.95 |
| 06:35 | 1 | 17 | 67 | 57,090 | 0.14 | 0 | 2.61 | 2.82 | 17.91 | 0 | 0.71 | 2.69 | 4.32 |
| 06:34 | 1 | 16.9 | 67 | 57,070 | 0.19 | 0 | 0.34 | 0.33 | 12.96 | 0 | 0.71 | 2.2 | 4.32 |
| 06:29 | 1 | 16.8 | 68 | 56,981 | 0.1 | 0 | 0 | 2.2 | 16.65 | 0 | 0.71 | 2.18 | 4.97 |
| 06:28 | 1 | 16.8 | 68 | 56,962 | 0.1 | 0 | 0 | 0.39 | 14.54 | 0 | 0 | 1.68 | 3.06 |
| 06:20 | 1 | 16.6 | 69 | 56,733 | 0.13 | 0 | 0.74 | 2.06 | 18.96 | 0 | 0.71 | 2.14 | 3.73 |
| 06:19 | 1 | 16.6 | 69 | 56,692 | 0.13 | 0 | 0 | 2.65 | 22.86 | 0 | 1.43 | 2.62 | 4.36 |
| 06:18 | 1 | 16.6 | 69 | 56,651 | 0.13 | 0 | 0 | 1.73 | 16.98 | 0 | 0.71 | 2.61 | 4.37 |
| 06:17 | 1 | 16.5 | 69 | 56,626 | 0.16 | 0 | 0 | 1.95 | 17.53 | 0 | 0.71 | 2.12 | 3.74 |